createdAt,value
2023-05-06T00:02:02.464Z,33.24
2023-05-06T00:05:06.448Z,32.78
2023-05-06T00:08:10.049Z,32.59
2023-05-06T00:11:14.927Z,32.27
2023-05-06T00:14:18.368Z,32.03
2023-05-06T00:17:22.777Z,32.36
2023-05-06T00:20:26.668Z,31.98
2023-05-06T00:23:30.900Z,32.06
2023-05-06T00:26:35.227Z,31.06
2023-05-06T00:29:39.520Z,31.02
2023-05-06T00:32:43.008Z,30.59
2023-05-06T00:35:47.409Z,30.17
2023-05-06T00:38:50.853Z,30.63
2023-05-06T00:41:55.119Z,30.42
2023-05-06T00:44:58.875Z,30.48
2023-05-06T00:48:03.321Z,30.16
2023-05-06T00:51:07.755Z,30.02
2023-05-06T00:54:13.528Z,29.72
2023-05-06T00:57:17.156Z,29.06
2023-05-06T01:00:22.508Z,28.94
2023-05-06T01:03:25.912Z,28.79
2023-05-06T01:06:59.758Z,28.93
2023-05-06T01:10:20.600Z,28.89
2023-05-06T01:13:54.533Z,28.07
2023-05-06T01:17:02.810Z,27.84
2023-05-06T01:20:09.032Z,27.76
2023-05-06T01:23:13.870Z,27.34
2023-05-06T01:26:18.228Z,27.28
2023-05-06T01:29:21.508Z,27.29
2023-05-06T01:32:42.746Z,26.67
2023-05-06T01:36:22.228Z,26.83
2023-05-06T01:39:27.873Z,26.37
2023-05-06T01:42:32.537Z,26.05
2023-05-06T01:45:38.526Z,25.84
2023-05-06T01:48:43.638Z,25.95
2023-05-06T01:51:52.244Z,26.18
2023-05-06T01:54:55.533Z,25.53
2023-05-06T01:58:00.618Z,25.40
2023-05-06T02:01:04.458Z,25.12
2023-05-06T02:04:08.271Z,24.98
2023-05-06T02:07:12.256Z,25.25
2023-05-06T02:10:16.473Z,25.12
2023-05-06T02:13:24.844Z,24.79
2023-05-06T02:16:32.687Z,24.79
2023-05-06T02:19:36.446Z,24.55
2023-05-06T02:22:40.503Z,24.06
2023-05-06T02:25:44.440Z,22.60
2023-05-06T02:28:49.253Z,22.98
2023-05-06T02:31:53.380Z,22.84
2023-05-06T02:34:57.413Z,22.54
2023-05-06T02:38:01.799Z,22.51
2023-05-06T02:41:05.774Z,22.10
2023-05-06T02:47:38.883Z,22.02
2023-05-06T02:50:48.635Z,22.73
2023-05-06T02:53:52.994Z,22.45
2023-05-06T02:56:56.775Z,22.21
2023-05-06T03:00:01.201Z,21.47
2023-05-06T03:03:05.002Z,21.67
2023-05-06T03:06:08.659Z,21.36
2023-05-06T03:09:12.331Z,21.03
2023-05-06T03:12:16.424Z,20.97
2023-05-06T03:15:20.168Z,20.52
2023-05-06T03:18:24.145Z,20.29
2023-05-06T03:21:27.689Z,20.99
2023-05-06T03:24:31.809Z,20.77
2023-05-06T03:27:35.597Z,20.75
2023-05-06T03:30:46.706Z,20.38
2023-05-06T03:33:50.919Z,20.36
2023-05-06T03:36:55.531Z,20.63
2023-05-06T03:40:01.337Z,20.48
2023-05-06T03:43:05.245Z,20.77
2023-05-06T03:46:09.759Z,20.60
2023-05-06T03:49:13.698Z,20.28
2023-05-06T03:52:19.968Z,20.17
2023-05-06T03:55:24.198Z,20.74
2023-05-06T03:58:29.079Z,20.17
2023-05-06T04:01:33.998Z,19.95
2023-05-06T04:04:38.696Z,20.06
2023-05-06T04:07:42.709Z,19.95
2023-05-06T04:10:50.969Z,19.99
2023-05-06T04:25:58.848Z,19.27
2023-05-06T04:29:05.482Z,19.38
2023-05-06T04:32:15.435Z,19.35
2023-05-06T04:35:19.957Z,18.59
2023-05-06T04:38:26.664Z,19.07
2023-05-06T04:41:32.590Z,18.29
2023-05-06T04:44:38.656Z,18.50
2023-05-06T04:47:45.353Z,18.60
2023-05-06T04:50:51.669Z,18.47
2023-05-06T04:53:55.197Z,18.51
2023-05-06T04:56:59.853Z,19.12
2023-05-06T05:00:04.744Z,18.87
2023-05-06T05:03:09.273Z,18.77
2023-05-06T05:20:01.649Z,18.38
2023-05-06T05:23:07.624Z,18.58
2023-05-06T05:26:11.673Z,18.87
2023-05-06T05:29:17.402Z,18.79
2023-05-06T05:32:23.605Z,18.35
2023-05-06T05:46:52.828Z,18.45
2023-05-06T05:49:57.260Z,18.17
2023-05-06T05:53:00.735Z,18.11
2023-05-06T05:56:04.651Z,18.10
2023-05-06T05:59:09.025Z,17.86
2023-05-06T06:02:12.810Z,17.93
2023-05-06T06:05:16.268Z,17.67
2023-05-06T06:08:19.400Z,17.34
2023-05-06T06:11:26.210Z,17.55
2023-05-06T06:14:30.169Z,17.64
2023-05-06T06:17:34.425Z,18.05
2023-05-06T06:20:39.673Z,17.81
2023-05-06T06:23:43.254Z,17.66
2023-05-06T06:26:47.421Z,17.60
2023-05-06T06:29:51.775Z,17.35
2023-05-06T06:32:56.606Z,17.41
2023-05-06T06:36:00.866Z,17.27
2023-05-06T06:39:05.013Z,17.30
2023-05-06T06:42:08.900Z,17.09
2023-05-06T06:45:17.697Z,17.11
2023-05-06T06:48:21.441Z,17.25
2023-05-06T06:51:25.272Z,17.05
2023-05-06T06:54:29.391Z,16.54
2023-05-06T06:57:33.790Z,16.14
2023-05-06T07:00:38.794Z,15.89
2023-05-06T07:03:42.121Z,15.72
2023-05-06T07:06:45.887Z,15.32
2023-05-06T07:09:49.876Z,16.05
2023-05-06T07:12:53.460Z,15.83
2023-05-06T07:15:57.141Z,15.61
2023-05-06T07:19:01.418Z,14.83
2023-05-06T07:22:04.608Z,14.91
2023-05-06T07:25:09.596Z,15.16
2023-05-06T07:28:13.548Z,15.04
2023-05-06T07:31:17.280Z,14.79
2023-05-06T07:34:21.385Z,14.75
2023-05-06T07:37:25.145Z,15.18
2023-05-06T07:40:29.098Z,15.29
2023-05-06T07:43:33.243Z,15.04
2023-05-06T07:46:36.904Z,15.06
2023-05-06T07:49:40.998Z,14.73
2023-05-06T07:52:44.553Z,15.19
2023-05-06T07:55:48.310Z,15.11
2023-05-06T07:58:52.083Z,15.07
2023-05-06T08:01:56.058Z,15.20
2023-05-06T08:05:00.007Z,15.13
2023-05-06T08:08:03.781Z,14.83
2023-05-06T08:11:07.214Z,14.97
2023-05-06T08:14:11.142Z,14.80
2023-05-06T08:17:14.784Z,14.79
2023-05-06T08:20:18.746Z,14.43
2023-05-06T08:23:22.412Z,14.23
2023-05-06T08:26:26.454Z,14.34
2023-05-06T08:29:30.648Z,14.68
2023-05-06T08:32:34.314Z,14.35
2023-05-06T08:35:37.693Z,14.15
2023-05-06T08:38:41.966Z,14.03
2023-05-06T08:41:51.751Z,14.58
2023-05-06T08:44:57.038Z,15.54
2023-05-06T08:48:01.029Z,14.88
2023-05-06T08:51:05.737Z,14.58
2023-05-06T08:54:10.712Z,15.22
2023-05-06T08:57:15.656Z,15.95
2023-05-06T09:00:19.777Z,16.91
2023-05-06T09:03:23.857Z,17.67
2023-05-06T09:06:27.836Z,17.76
2023-05-06T09:09:31.898Z,18.24
2023-05-06T09:12:40.552Z,19.03
2023-05-06T09:15:46.138Z,19.36
2023-05-06T09:18:49.159Z,19.58
2023-05-06T09:21:53.337Z,19.87
2023-05-06T09:24:58.515Z,20.34
2023-05-06T09:28:07.262Z,20.62
2023-05-06T09:31:10.823Z,19.33
2023-05-06T09:34:16.471Z,20.12
2023-05-06T09:37:21.537Z,17.95
2023-05-06T09:40:27.285Z,17.96
2023-05-06T09:43:31.909Z,16.34
2023-05-06T09:46:35.978Z,15.56
2023-05-06T09:49:40.286Z,15.00
2023-05-06T09:52:47.219Z,14.91
2023-05-06T09:55:52.275Z,14.71
2023-05-06T09:58:57.723Z,14.47
2023-05-06T10:06:24.074Z,14.25
2023-05-06T10:09:28.262Z,14.45
2023-05-06T10:12:37.053Z,14.56
2023-05-06T10:15:41.620Z,14.63
2023-05-06T10:18:47.293Z,14.81
2023-05-06T10:21:56.313Z,14.69
2023-05-06T10:25:17.373Z,14.54
2023-05-06T10:28:29.144Z,14.69
2023-05-06T10:31:35.929Z,15.11
2023-05-06T10:34:49.795Z,15.01
2023-05-06T10:41:15.181Z,15.09
2023-05-06T10:44:18.932Z,14.89
2023-05-06T10:47:23.732Z,15.13
2023-05-06T10:50:28.403Z,15.35
2023-05-06T10:54:01.457Z,15.72
2023-05-06T10:57:11.605Z,16.25
2023-05-06T11:00:16.149Z,16.26
2023-05-06T11:03:24.429Z,16.43
2023-05-06T11:06:38.383Z,16.69
2023-05-06T11:10:00.666Z,16.87
2023-05-06T11:13:35.467Z,16.74
2023-05-06T11:16:52.941Z,16.87
2023-05-06T11:20:41.643Z,16.87
2023-05-06T11:23:53.241Z,17.39
2023-05-06T11:26:59.214Z,17.76
2023-05-06T11:30:04.881Z,18.23
2023-05-06T11:33:09.682Z,19.09
2023-05-06T11:36:17.502Z,19.90
2023-05-06T11:39:21.252Z,20.70
2023-05-06T11:42:29.722Z,21.36
2023-05-06T11:45:48.136Z,22.73
2023-05-06T11:48:52.504Z,23.93
2023-05-06T11:51:58.064Z,24.59
2023-05-06T11:55:02.148Z,25.26
2023-05-06T11:58:05.913Z,25.66
2023-05-06T12:01:10.662Z,26.18
2023-05-06T12:04:14.663Z,26.55
2023-05-06T12:07:28.177Z,26.80
2023-05-06T12:10:32.063Z,27.14
2023-05-06T12:13:41.199Z,27.32
2023-05-06T12:16:44.579Z,27.60
2023-05-06T12:23:16.745Z,27.96
2023-05-06T12:30:37.541Z,28.25
2023-05-06T12:40:51.634Z,28.78
2023-05-06T12:55:15.606Z,29.07
2023-05-06T12:58:20.699Z,29.26
2023-05-06T13:01:24.724Z,29.37
2023-05-06T13:04:28.919Z,29.48
2023-05-06T13:07:31.985Z,29.64
2023-05-06T13:10:35.909Z,29.55
2023-05-06T13:13:39.485Z,29.71
2023-05-06T13:16:44.461Z,29.60
2023-05-06T13:19:48.242Z,29.69
2023-05-06T13:22:55.040Z,29.62
2023-05-06T13:35:57.287Z,29.71
2023-05-06T13:45:37.347Z,29.87
2023-05-06T13:48:41.202Z,29.86
2023-05-06T13:51:45.094Z,29.84
2023-05-06T13:54:48.853Z,29.77
2023-05-06T14:01:14.726Z,29.82
2023-05-06T14:07:40.322Z,29.97
2023-05-06T14:10:44.841Z,30.26
2023-05-06T14:13:49.995Z,30.17
2023-05-06T14:20:18.456Z,29.96
2023-05-06T14:23:22.406Z,29.71
2023-05-06T14:26:26.367Z,30.02
2023-05-06T14:29:31.969Z,30.40
2023-05-06T14:32:36.360Z,29.89
2023-05-06T14:35:44.513Z,30.19
2023-05-06T14:38:48.618Z,30.27
2023-05-06T14:41:52.494Z,30.38
2023-05-06T14:44:56.817Z,30.62
2023-05-06T14:48:01.220Z,30.70
2023-05-06T14:51:05.945Z,30.85
2023-05-06T14:54:09.613Z,30.57
2023-05-06T14:57:13.463Z,30.71
2023-05-06T15:00:18.739Z,30.74
2023-05-06T15:03:22.503Z,30.83
2023-05-06T15:06:26.834Z,31.00
2023-05-06T15:09:30.592Z,31.09
2023-05-06T15:12:35.235Z,31.21
2023-05-06T15:15:39.228Z,31.24
2023-05-06T15:18:43.750Z,31.36
2023-05-06T15:21:48.100Z,31.28
2023-05-06T15:24:52.522Z,31.32
2023-05-06T15:27:56.367Z,31.37
2023-05-06T15:31:00.480Z,31.43
2023-05-06T15:34:04.909Z,31.47
2023-05-06T15:37:09.024Z,31.61
2023-05-06T15:40:13.520Z,31.54
2023-05-06T15:43:22.869Z,32.16
2023-05-06T15:46:28.318Z,32.75
2023-05-06T15:49:51.484Z,33.06
2023-05-06T15:52:56.598Z,33.65
2023-05-06T15:56:12.996Z,34.27
2023-05-06T15:59:17.472Z,35.13
2023-05-06T16:05:28.086Z,35.14
2023-05-06T16:08:32.441Z,36.22
2023-05-06T16:11:36.252Z,35.38
2023-05-06T16:14:40.391Z,35.76
2023-05-06T16:17:44.595Z,35.99
2023-05-06T16:20:48.715Z,36.35
2023-05-06T16:23:52.460Z,36.31
2023-05-06T16:26:57.197Z,36.08
2023-05-06T16:30:00.639Z,36.50
2023-05-06T16:33:06.135Z,35.82
2023-05-06T16:36:10.528Z,36.36
2023-05-06T16:39:14.490Z,36.75
2023-05-06T16:42:18.253Z,37.06
2023-05-06T16:45:22.073Z,36.48
2023-05-06T16:48:25.802Z,36.39
2023-05-06T16:51:29.872Z,35.61
2023-05-06T16:54:33.642Z,35.59
2023-05-06T16:57:37.651Z,35.54
2023-05-06T17:00:42.935Z,35.63
2023-05-06T17:03:47.237Z,35.28
2023-05-06T17:06:51.378Z,35.55
2023-05-06T17:09:55.151Z,35.60
2023-05-06T17:13:03.504Z,35.55
2023-05-06T17:16:08.320Z,35.55
2023-05-06T17:19:14.989Z,35.72
2023-05-06T17:22:18.878Z,35.79
2023-05-06T17:25:23.364Z,35.78
2023-05-06T17:28:35.509Z,36.07
2023-05-06T17:31:39.203Z,36.27
2023-05-06T17:34:42.938Z,36.32
2023-05-06T17:37:47.173Z,36.57
2023-05-06T17:40:51.651Z,37.05
2023-05-06T17:43:55.526Z,38.62
2023-05-06T17:46:59.363Z,39.59
2023-05-06T17:50:02.726Z,40.15
2023-05-06T17:53:06.748Z,40.73
2023-05-06T17:56:10.322Z,41.19
2023-05-06T17:59:14.282Z,41.33
2023-05-06T18:02:18.230Z,41.05
2023-05-06T18:05:23.162Z,40.39
2023-05-06T18:08:26.617Z,40.16
2023-05-06T18:11:31.241Z,39.30
2023-05-06T18:14:34.840Z,39.63
2023-05-06T18:17:38.976Z,38.64
2023-05-06T18:20:43.529Z,39.10
2023-05-06T18:23:47.638Z,38.75
2023-05-06T18:26:52.810Z,38.74
2023-05-06T18:29:56.341Z,38.84
2023-05-06T18:32:59.992Z,39.03
2023-05-06T18:36:03.889Z,38.83
2023-05-06T18:39:07.690Z,38.99
2023-05-06T18:42:11.652Z,38.57
2023-05-06T18:45:15.291Z,38.72
2023-05-06T18:48:18.698Z,38.55
2023-05-06T18:51:23.344Z,38.53
2023-05-06T18:54:27.225Z,38.59
2023-05-06T18:57:31.148Z,38.81
2023-05-06T19:00:34.647Z,39.43
2023-05-06T19:03:39.490Z,39.81
2023-05-06T19:06:43.095Z,40.29
2023-05-06T19:09:46.792Z,41.58
2023-05-06T19:12:50.466Z,40.69
2023-05-06T19:15:55.752Z,41.19
2023-05-06T19:19:02.758Z,41.54
2023-05-06T19:22:06.916Z,41.98
2023-05-06T19:25:11.482Z,40.56
2023-05-06T19:28:15.309Z,41.51
2023-05-06T19:31:19.504Z,41.85
2023-05-06T19:34:23.203Z,42.08
2023-05-06T19:37:31.431Z,42.34
2023-05-06T19:40:37.147Z,42.86
2023-05-06T19:43:44.869Z,42.97
2023-05-06T19:46:54.577Z,43.09
2023-05-06T19:49:58.662Z,43.27
2023-05-06T19:53:02.017Z,43.31
2023-05-06T19:56:12.958Z,42.80
2023-05-06T19:59:18.146Z,42.65
2023-05-06T20:02:22.314Z,42.41
2023-05-06T20:05:30.972Z,42.09
2023-05-06T20:08:35.693Z,41.94
2023-05-06T20:11:40.510Z,41.40
2023-05-06T20:14:44.498Z,41.77
2023-05-06T20:17:48.585Z,41.75
2023-05-06T20:20:52.580Z,41.36
2023-05-06T20:23:55.658Z,41.70
2023-05-06T20:26:59.576Z,42.07
2023-05-06T20:30:04.608Z,41.91
2023-05-06T20:33:08.518Z,42.25
2023-05-06T20:36:12.303Z,42.97
2023-05-06T20:39:16.796Z,43.10
2023-05-06T20:42:20.054Z,42.75
2023-05-06T20:45:23.649Z,42.01
2023-05-06T20:48:29.284Z,42.34
2023-05-06T20:51:32.920Z,42.06
2023-05-06T20:54:36.416Z,42.05
2023-05-06T20:57:44.608Z,41.96
2023-05-06T21:00:47.781Z,41.81
2023-05-06T21:03:51.558Z,41.66
2023-05-06T21:06:55.000Z,41.87
2023-05-06T21:09:59.146Z,42.05
2023-05-06T21:13:02.469Z,42.31
2023-05-06T21:16:10.495Z,42.36
2023-05-06T21:19:13.745Z,42.46
2023-05-06T21:22:16.919Z,42.67
2023-05-06T21:25:22.200Z,42.52
2023-05-06T21:28:25.993Z,41.99
2023-05-06T21:31:31.140Z,41.65
2023-05-06T21:34:36.839Z,41.34
2023-05-06T21:37:40.779Z,41.21
2023-05-06T21:40:44.354Z,41.03
2023-05-06T21:43:47.882Z,40.78
2023-05-06T21:46:52.073Z,40.52
2023-05-06T21:49:55.545Z,40.55
2023-05-06T21:52:58.747Z,40.46
2023-05-06T21:56:02.443Z,40.24
2023-05-06T21:59:06.927Z,40.20
2023-05-06T22:02:10.648Z,39.98
2023-05-06T22:05:13.980Z,39.86
2023-05-06T22:08:18.577Z,39.39
2023-05-06T22:11:23.518Z,39.37
2023-05-06T22:14:37.269Z,39.36
2023-05-06T22:17:44.620Z,39.03
2023-05-06T22:20:52.096Z,38.97
2023-05-06T22:23:57.750Z,38.86
2023-05-06T22:27:02.001Z,39.00
2023-05-06T22:30:05.893Z,39.04
2023-05-06T22:33:09.350Z,38.88
2023-05-06T22:36:13.089Z,38.96
2023-05-06T22:39:18.371Z,38.68
2023-05-06T22:42:22.454Z,38.84
2023-05-06T22:45:31.147Z,39.02
2023-05-06T22:48:39.505Z,39.07
2023-05-06T22:51:43.550Z,39.21
2023-05-06T22:54:47.638Z,39.04
2023-05-06T22:57:54.885Z,38.84
2023-05-06T23:00:59.014Z,38.91
2023-05-06T23:04:04.101Z,38.72
2023-05-06T23:07:08.014Z,38.67
2023-05-06T23:10:12.247Z,38.72
2023-05-06T23:13:16.350Z,37.87
2023-05-06T23:16:20.470Z,37.65
2023-05-06T23:19:28.140Z,36.88
2023-05-06T23:22:32.112Z,36.35
2023-05-06T23:25:36.788Z,35.86
2023-05-06T23:28:42.559Z,35.80
2023-05-06T23:31:46.571Z,35.62
2023-05-06T23:34:50.193Z,35.55
2023-05-06T23:37:53.402Z,34.87
2023-05-06T23:40:57.341Z,34.83
2023-05-06T23:44:00.881Z,35.02
2023-05-06T23:47:05.031Z,34.53
2023-05-06T23:50:10.164Z,33.73
2023-05-06T23:53:14.766Z,33.71
2023-05-06T23:56:23.291Z,33.85
2023-05-06T23:59:27.527Z,34.01
